Terminal Aerodrome Forecast
Issued by NWS Greer, SC

Home | Current Version | Previous Version | Text Only | Print | Product List | Glossary On
Versions: 1 2 3 4 5 6 7 8 9 10 11 12 13 14 15 16 17 18 19 20 21 22
000
FTUS42 KGSP 270525
TAFGSP
TAF
KGSP 270525Z 2706/2806 24008KT P6SM VCSH OVC050
     FM270700 31007KT 5SM -SHRA BR OVC020
     FM271300 36010KT P6SM OVC020
     FM271900 01006KT P6SM OVC050
     FM280000 33006KT P6SM OVC050=

USA.gov is the U.S. government's official web portal to all federal, state and local government web resources and services.